createdAt,value
2023-04-05T00:02:21.524Z,3.46
2023-04-05T00:04:57.791Z,3.46
2023-04-05T00:07:26.888Z,3.46
2023-04-05T00:09:55.865Z,3.44
2023-04-05T00:12:25.544Z,3.45
2023-04-05T00:14:57.170Z,3.44
2023-04-05T00:17:26.736Z,3.45
2023-04-05T00:19:58.080Z,3.46
2023-04-05T00:22:26.965Z,3.45
2023-04-05T00:24:56.079Z,3.42
2023-04-05T00:27:25.297Z,3.40
2023-04-05T00:29:54.079Z,3.39
2023-04-05T00:32:23.036Z,3.39
2023-04-05T00:34:52.721Z,3.41
2023-04-05T00:37:22.096Z,3.41
2023-04-05T00:39:50.835Z,3.42
2023-04-05T00:42:20.116Z,3.44
2023-04-05T00:44:48.498Z,3.46
2023-04-05T00:47:19.813Z,3.46
2023-04-05T00:49:50.585Z,3.46
2023-04-05T00:52:23.556Z,3.47
2023-04-05T00:54:52.201Z,3.48
2023-04-05T00:57:20.942Z,3.48
2023-04-05T00:59:50.127Z,3.48
2023-04-05T01:02:25.449Z,3.50
2023-04-05T01:05:01.221Z,3.52
2023-04-05T01:07:43.583Z,3.50
2023-04-05T01:10:13.988Z,3.48
2023-04-05T01:12:43.798Z,3.45
2023-04-05T01:15:13.114Z,3.45
2023-04-05T01:17:42.314Z,3.45
2023-04-05T01:20:15.446Z,3.43
2023-04-05T01:23:02.519Z,3.42
2023-04-05T01:25:53.117Z,3.39
2023-04-05T01:28:49.144Z,3.37
2023-04-05T01:31:26.982Z,3.36
2023-04-05T01:34:02.676Z,3.36
2023-04-05T01:36:56.247Z,3.38
2023-04-05T01:39:24.826Z,3.40
2023-04-05T01:41:58.953Z,3.39
2023-04-05T01:44:31.245Z,3.39
2023-04-05T01:47:00.167Z,3.39
2023-04-05T01:49:29.011Z,3.38
2023-04-05T01:51:57.519Z,3.37
2023-04-05T01:54:25.993Z,3.37
2023-04-05T01:56:54.657Z,3.37
2023-04-05T01:59:23.158Z,3.37
2023-04-05T02:01:51.940Z,3.38
2023-04-05T02:04:21.853Z,3.36
2023-04-05T02:06:57.573Z,3.35
2023-04-05T02:09:27.315Z,3.34
2023-04-05T02:11:56.729Z,3.35
2023-04-05T02:14:25.301Z,3.35
2023-04-05T02:16:55.990Z,3.34
2023-04-05T02:19:30.104Z,3.34
2023-04-05T02:21:58.490Z,3.34
2023-04-05T02:24:27.058Z,3.35
2023-04-05T02:26:56.758Z,3.35
2023-04-05T02:29:26.693Z,3.35
2023-04-05T02:31:55.635Z,3.35
2023-04-05T02:34:26.271Z,3.35
2023-04-05T02:36:54.830Z,3.33
2023-04-05T02:39:24.337Z,3.32
2023-04-05T02:41:53.926Z,3.33
2023-04-05T02:44:23.732Z,3.33
2023-04-05T02:46:56.695Z,3.33
2023-04-05T02:49:30.733Z,3.33
2023-04-05T02:52:01.654Z,3.31
2023-04-05T02:54:31.299Z,3.32
2023-04-05T02:57:02.530Z,3.35
2023-04-05T02:59:37.034Z,3.35
2023-04-05T03:03:46.696Z,3.36
2023-04-05T03:06:18.529Z,3.33
2023-04-05T03:08:50.297Z,3.33
2023-04-05T03:11:22.265Z,3.34
2023-04-05T03:13:57.566Z,3.35
2023-04-05T03:16:41.660Z,3.36
2023-04-05T03:19:24.524Z,3.36
2023-04-05T03:21:55.468Z,3.36
2023-04-05T03:24:28.279Z,3.35
2023-04-05T03:27:02.754Z,3.37
2023-04-05T03:29:35.531Z,3.38
2023-04-05T03:32:12.083Z,3.37
2023-04-05T03:34:44.821Z,3.37
2023-04-05T03:37:14.016Z,3.37
2023-04-05T03:39:48.754Z,3.39
2023-04-05T03:42:20.317Z,3.38
2023-04-05T03:44:54.484Z,3.39
2023-04-05T03:47:24.912Z,3.41
2023-04-05T03:49:53.825Z,3.44
2023-04-05T03:52:22.413Z,3.45
2023-04-05T03:54:54.492Z,3.48
2023-04-05T03:57:24.710Z,3.49
2023-04-05T04:00:14.508Z,3.50
2023-04-05T04:03:07.730Z,3.53
2023-04-05T04:05:41.768Z,3.54
2023-04-05T04:08:13.855Z,3.51
2023-04-05T04:10:42.946Z,3.49
2023-04-05T04:13:38.350Z,3.45
2023-04-05T04:16:18.737Z,3.44
2023-04-05T04:18:48.264Z,3.43
2023-04-05T04:21:27.410Z,3.43
2023-04-05T04:24:19.096Z,3.42
2023-04-05T04:27:07.464Z,3.40
2023-04-05T04:29:48.248Z,3.38
2023-04-05T04:32:59.187Z,3.37
2023-04-05T04:35:40.268Z,3.38
2023-04-05T04:38:28.482Z,3.40
2023-04-05T04:41:22.889Z,3.43
2023-04-05T04:44:04.909Z,3.42
2023-04-05T04:46:54.967Z,3.41
2023-04-05T04:49:52.994Z,3.40
2023-04-05T04:52:22.248Z,3.41
2023-04-05T04:54:55.532Z,3.40
2023-04-05T04:57:29.215Z,3.40
